sensor_id;sensor_type;location;lat;lon;timestamp;P1;durP1;ratioP1;P2;durP2;ratioP2
61407;SDS011;47274;43.054;25.146;2023-08-24T00:01:40;18.10;;;9.05;;
61407;SDS011;47274;43.054;25.146;2023-08-24T00:04:06;13.77;;;7.80;;
61407;SDS011;47274;43.054;25.146;2023-08-24T00:06:33;15.60;;;8.45;;
61407;SDS011;47274;43.054;25.146;2023-08-24T00:08:59;17.65;;;9.38;;
61407;SDS011;47274;43.054;25.146;2023-08-24T00:11:25;16.80;;;9.40;;
61407;SDS011;47274;43.054;25.146;2023-08-24T00:13:54;16.35;;;9.13;;
61407;SDS011;47274;43.054;25.146;2023-08-24T00:16:29;15.05;;;8.18;;
61407;SDS011;47274;43.054;25.146;2023-08-24T00:18:55;16.60;;;8.20;;
61407;SDS011;47274;43.054;25.146;2023-08-24T00:21:20;17.95;;;9.30;;
61407;SDS011;47274;43.054;25.146;2023-08-24T00:23:50;18.00;;;8.77;;
61407;SDS011;47274;43.054;25.146;2023-08-24T00:26:17;18.65;;;8.82;;
61407;SDS011;47274;43.054;25.146;2023-08-24T00:28:43;16.88;;;8.80;;
61407;SDS011;47274;43.054;25.146;2023-08-24T00:31:12;17.83;;;9.27;;
61407;SDS011;47274;43.054;25.146;2023-08-24T00:33:38;16.88;;;8.77;;
61407;SDS011;47274;43.054;25.146;2023-08-24T00:36:05;20.10;;;9.10;;
61407;SDS011;47274;43.054;25.146;2023-08-24T00:38:31;17.48;;;9.18;;
61407;SDS011;47274;43.054;25.146;2023-08-24T00:40:57;17.20;;;8.68;;
61407;SDS011;47274;43.054;25.146;2023-08-24T00:43:27;16.83;;;8.88;;
61407;SDS011;47274;43.054;25.146;2023-08-24T00:45:53;15.88;;;8.65;;
61407;SDS011;47274;43.054;25.146;2023-08-24T00:48:24;16.20;;;8.40;;
61407;SDS011;47274;43.054;25.146;2023-08-24T00:50:54;19.88;;;9.20;;
61407;SDS011;47274;43.054;25.146;2023-08-24T00:53:25;16.90;;;9.05;;
61407;SDS011;47274;43.054;25.146;2023-08-24T00:55:53;17.83;;;8.68;;
61407;SDS011;47274;43.054;25.146;2023-08-24T00:58:20;18.02;;;9.13;;
61407;SDS011;47274;43.054;25.146;2023-08-24T01:00:46;17.92;;;8.98;;
61407;SDS011;47274;43.054;25.146;2023-08-24T01:03:13;18.67;;;9.40;;
61407;SDS011;47274;43.054;25.146;2023-08-24T01:05:39;17.60;;;9.50;;
61407;SDS011;47274;43.054;25.146;2023-08-24T01:08:05;17.30;;;8.95;;
61407;SDS011;47274;43.054;25.146;2023-08-24T01:10:36;16.95;;;8.82;;
61407;SDS011;47274;43.054;25.146;2023-08-24T01:13:10;16.95;;;8.60;;
61407;SDS011;47274;43.054;25.146;2023-08-24T01:18:23;13.13;;;7.63;;
61407;SDS011;47274;43.054;25.146;2023-08-24T01:20:52;14.48;;;7.82;;
61407;SDS011;47274;43.054;25.146;2023-08-24T01:26:20;13.57;;;8.23;;
61407;SDS011;47274;43.054;25.146;2023-08-24T01:28:46;13.10;;;7.05;;
61407;SDS011;47274;43.054;25.146;2023-08-24T01:31:13;13.50;;;7.75;;
61407;SDS011;47274;43.054;25.146;2023-08-24T01:33:44;14.02;;;7.13;;
61407;SDS011;47274;43.054;25.146;2023-08-24T01:36:11;17.17;;;8.85;;
61407;SDS011;47274;43.054;25.146;2023-08-24T01:38:39;15.27;;;8.65;;
61407;SDS011;47274;43.054;25.146;2023-08-24T01:43:37;15.60;;;7.97;;
61407;SDS011;47274;43.054;25.146;2023-08-24T01:46:09;14.70;;;7.80;;
61407;SDS011;47274;43.054;25.146;2023-08-24T01:48:40;13.98;;;7.60;;
61407;SDS011;47274;43.054;25.146;2023-08-24T01:51:10;18.70;;;9.63;;
61407;SDS011;47274;43.054;25.146;2023-08-24T01:53:40;21.15;;;9.48;;
61407;SDS011;47274;43.054;25.146;2023-08-24T01:56:10;18.73;;;9.52;;
61407;SDS011;47274;43.054;25.146;2023-08-24T01:58:36;18.88;;;9.43;;
61407;SDS011;47274;43.054;25.146;2023-08-24T02:01:02;19.08;;;9.77;;
61407;SDS011;47274;43.054;25.146;2023-08-24T02:03:30;17.65;;;9.82;;
61407;SDS011;47274;43.054;25.146;2023-08-24T02:05:56;19.58;;;9.63;;
61407;SDS011;47274;43.054;25.146;2023-08-24T02:08:22;17.45;;;9.30;;
61407;SDS011;47274;43.054;25.146;2023-08-24T02:10:51;18.92;;;9.80;;
61407;SDS011;47274;43.054;25.146;2023-08-24T02:13:17;19.08;;;10.45;;
61407;SDS011;47274;43.054;25.146;2023-08-24T02:15:43;20.27;;;9.45;;
61407;SDS011;47274;43.054;25.146;2023-08-24T02:18:09;17.58;;;9.70;;
61407;SDS011;47274;43.054;25.146;2023-08-24T02:20:35;17.27;;;9.48;;
61407;SDS011;47274;43.054;25.146;2023-08-24T02:23:03;18.45;;;9.32;;
61407;SDS011;47274;43.054;25.146;2023-08-24T02:25:31;18.52;;;10.02;;
61407;SDS011;47274;43.054;25.146;2023-08-24T02:27:58;18.83;;;9.73;;
61407;SDS011;47274;43.054;25.146;2023-08-24T02:30:24;18.10;;;9.60;;
61407;SDS011;47274;43.054;25.146;2023-08-24T02:32:53;19.65;;;10.05;;
61407;SDS011;47274;43.054;25.146;2023-08-24T02:35:19;18.42;;;9.82;;
61407;SDS011;47274;43.054;25.146;2023-08-24T02:37:45;18.05;;;9.65;;
61407;SDS011;47274;43.054;25.146;2023-08-24T02:40:11;18.45;;;9.18;;
61407;SDS011;47274;43.054;25.146;2023-08-24T02:42:36;16.88;;;9.10;;
61407;SDS011;47274;43.054;25.146;2023-08-24T02:45:03;19.27;;;9.50;;
61407;SDS011;47274;43.054;25.146;2023-08-24T02:47:29;15.85;;;9.43;;
61407;SDS011;47274;43.054;25.146;2023-08-24T02:49:55;17.55;;;9.60;;
61407;SDS011;47274;43.054;25.146;2023-08-24T02:52:21;18.35;;;9.60;;
61407;SDS011;47274;43.054;25.146;2023-08-24T02:54:48;19.65;;;9.38;;
61407;SDS011;47274;43.054;25.146;2023-08-24T02:57:15;20.85;;;9.65;;
61407;SDS011;47274;43.054;25.146;2023-08-24T02:59:41;17.13;;;9.20;;
61407;SDS011;47274;43.054;25.146;2023-08-24T03:02:09;17.50;;;9.68;;
61407;SDS011;47274;43.054;25.146;2023-08-24T03:04:34;18.10;;;9.75;;
61407;SDS011;47274;43.054;25.146;2023-08-24T03:07:00;18.10;;;9.80;;
61407;SDS011;47274;43.054;25.146;2023-08-24T03:09:26;19.05;;;9.68;;
61407;SDS011;47274;43.054;25.146;2023-08-24T03:11:52;19.42;;;9.82;;
61407;SDS011;47274;43.054;25.146;2023-08-24T03:14:18;19.90;;;10.02;;
61407;SDS011;47274;43.054;25.146;2023-08-24T03:16:44;18.17;;;9.88;;
61407;SDS011;47274;43.054;25.146;2023-08-24T03:19:13;19.35;;;9.82;;
61407;SDS011;47274;43.054;25.146;2023-08-24T03:21:40;17.85;;;9.80;;
61407;SDS011;47274;43.054;25.146;2023-08-24T03:24:06;18.92;;;9.88;;
61407;SDS011;47274;43.054;25.146;2023-08-24T03:26:32;17.50;;;9.80;;
61407;SDS011;47274;43.054;25.146;2023-08-24T03:28:57;19.40;;;9.75;;
61407;SDS011;47274;43.054;25.146;2023-08-24T03:31:23;20.33;;;10.02;;
61407;SDS011;47274;43.054;25.146;2023-08-24T03:33:51;18.25;;;8.77;;
61407;SDS011;47274;43.054;25.146;2023-08-24T03:36:17;16.90;;;8.93;;
61407;SDS011;47274;43.054;25.146;2023-08-24T03:38:44;17.42;;;9.00;;
61407;SDS011;47274;43.054;25.146;2023-08-24T03:41:14;18.60;;;8.88;;
61407;SDS011;47274;43.054;25.146;2023-08-24T03:43:41;17.55;;;9.13;;
61407;SDS011;47274;43.054;25.146;2023-08-24T03:46:07;16.75;;;8.90;;
61407;SDS011;47274;43.054;25.146;2023-08-24T03:48:33;17.83;;;8.60;;
61407;SDS011;47274;43.054;25.146;2023-08-24T03:50:59;16.90;;;8.75;;
61407;SDS011;47274;43.054;25.146;2023-08-24T03:53:25;18.45;;;9.20;;
61407;SDS011;47274;43.054;25.146;2023-08-24T03:55:51;17.50;;;8.82;;
61407;SDS011;47274;43.054;25.146;2023-08-24T03:58:19;17.67;;;9.07;;
61407;SDS011;47274;43.054;25.146;2023-08-24T04:00:47;15.93;;;9.00;;
61407;SDS011;47274;43.054;25.146;2023-08-24T04:03:13;16.20;;;8.60;;
61407;SDS011;47274;43.054;25.146;2023-08-24T04:05:39;17.73;;;8.77;;
61407;SDS011;47274;43.054;25.146;2023-08-24T04:08:17;17.08;;;8.63;;
61407;SDS011;47274;43.054;25.146;2023-08-24T04:10:43;14.90;;;8.10;;
61407;SDS011;47274;43.054;25.146;2023-08-24T04:13:09;17.35;;;8.90;;
61407;SDS011;47274;43.054;25.146;2023-08-24T04:15:35;16.98;;;8.50;;
61407;SDS011;47274;43.054;25.146;2023-08-24T04:18:05;15.40;;;7.82;;
61407;SDS011;47274;43.054;25.146;2023-08-24T04:20:33;16.88;;;8.48;;
61407;SDS011;47274;43.054;25.146;2023-08-24T04:22:59;16.50;;;8.52;;
61407;SDS011;47274;43.054;25.146;2023-08-24T04:25:27;16.52;;;8.48;;
61407;SDS011;47274;43.054;25.146;2023-08-24T04:27:55;17.60;;;9.00;;
61407;SDS011;47274;43.054;25.146;2023-08-24T04:30:21;19.35;;;9.77;;
61407;SDS011;47274;43.054;25.146;2023-08-24T04:32:47;16.20;;;8.95;;
61407;SDS011;47274;43.054;25.146;2023-08-24T04:35:13;17.23;;;9.23;;
61407;SDS011;47274;43.054;25.146;2023-08-24T04:37:38;18.17;;;9.55;;
61407;SDS011;47274;43.054;25.146;2023-08-24T04:40:05;16.98;;;9.27;;
61407;SDS011;47274;43.054;25.146;2023-08-24T04:42:35;17.48;;;9.35;;
61407;SDS011;47274;43.054;25.146;2023-08-24T04:45:00;16.45;;;9.05;;
61407;SDS011;47274;43.054;25.146;2023-08-24T04:47:27;18.52;;;9.02;;
61407;SDS011;47274;43.054;25.146;2023-08-24T04:49:53;16.50;;;9.55;;
61407;SDS011;47274;43.054;25.146;2023-08-24T04:52:19;18.35;;;10.25;;
61407;SDS011;47274;43.054;25.146;2023-08-24T04:54:47;16.65;;;9.07;;
61407;SDS011;47274;43.054;25.146;2023-08-24T04:57:13;18.23;;;9.95;;
61407;SDS011;47274;43.054;25.146;2023-08-24T04:59:39;17.30;;;9.75;;
61407;SDS011;47274;43.054;25.146;2023-08-24T05:02:05;18.48;;;9.73;;
61407;SDS011;47274;43.054;25.146;2023-08-24T05:04:31;17.50;;;9.85;;
61407;SDS011;47274;43.054;25.146;2023-08-24T05:06:56;17.70;;;9.32;;
61407;SDS011;47274;43.054;25.146;2023-08-24T05:09:25;17.77;;;9.50;;
61407;SDS011;47274;43.054;25.146;2023-08-24T05:11:51;18.67;;;9.70;;
61407;SDS011;47274;43.054;25.146;2023-08-24T05:14:19;18.65;;;10.05;;
61407;SDS011;47274;43.054;25.146;2023-08-24T05:16:45;17.08;;;9.13;;
61407;SDS011;47274;43.054;25.146;2023-08-24T05:19:14;18.10;;;9.75;;
61407;SDS011;47274;43.054;25.146;2023-08-24T05:21:40;16.83;;;9.00;;
61407;SDS011;47274;43.054;25.146;2023-08-24T05:24:06;17.27;;;9.52;;
61407;SDS011;47274;43.054;25.146;2023-08-24T05:26:32;16.55;;;9.45;;
61407;SDS011;47274;43.054;25.146;2023-08-24T05:28:58;16.00;;;8.60;;
61407;SDS011;47274;43.054;25.146;2023-08-24T05:31:26;17.15;;;9.38;;
61407;SDS011;47274;43.054;25.146;2023-08-24T05:33:52;20.00;;;9.25;;
61407;SDS011;47274;43.054;25.146;2023-08-24T05:36:20;17.73;;;9.63;;
61407;SDS011;47274;43.054;25.146;2023-08-24T05:38:46;16.85;;;8.93;;
61407;SDS011;47274;43.054;25.146;2023-08-24T05:41:12;17.25;;;9.23;;
61407;SDS011;47274;43.054;25.146;2023-08-24T05:43:38;17.58;;;8.77;;
61407;SDS011;47274;43.054;25.146;2023-08-24T05:46:04;16.92;;;8.90;;
61407;SDS011;47274;43.054;25.146;2023-08-24T05:48:30;17.60;;;9.52;;
61407;SDS011;47274;43.054;25.146;2023-08-24T05:50:58;17.40;;;9.40;;
61407;SDS011;47274;43.054;25.146;2023-08-24T05:53:24;17.63;;;9.52;;
61407;SDS011;47274;43.054;25.146;2023-08-24T05:55:49;16.67;;;9.02;;
61407;SDS011;47274;43.054;25.146;2023-08-24T05:58:15;16.20;;;8.75;;
61407;SDS011;47274;43.054;25.146;2023-08-24T06:00:41;15.65;;;8.98;;
61407;SDS011;47274;43.054;25.146;2023-08-24T06:03:10;15.77;;;9.10;;
61407;SDS011;47274;43.054;25.146;2023-08-24T06:05:36;18.52;;;9.52;;
61407;SDS011;47274;43.054;25.146;2023-08-24T06:08:04;16.35;;;8.70;;
61407;SDS011;47274;43.054;25.146;2023-08-24T06:10:30;17.33;;;9.07;;
61407;SDS011;47274;43.054;25.146;2023-08-24T06:12:56;14.93;;;8.23;;
61407;SDS011;47274;43.054;25.146;2023-08-24T06:15:22;16.77;;;8.95;;
61407;SDS011;47274;43.054;25.146;2023-08-24T06:17:51;15.43;;;8.82;;
61407;SDS011;47274;43.054;25.146;2023-08-24T06:20:20;14.68;;;8.40;;
61407;SDS011;47274;43.054;25.146;2023-08-24T06:22:49;16.67;;;9.07;;
61407;SDS011;47274;43.054;25.146;2023-08-24T06:25:18;14.77;;;8.10;;
61407;SDS011;47274;43.054;25.146;2023-08-24T06:27:44;16.23;;;7.75;;
61407;SDS011;47274;43.054;25.146;2023-08-24T06:30:10;15.15;;;8.02;;
61407;SDS011;47274;43.054;25.146;2023-08-24T06:32:39;15.75;;;8.00;;
61407;SDS011;47274;43.054;25.146;2023-08-24T06:35:05;16.55;;;8.90;;
61407;SDS011;47274;43.054;25.146;2023-08-24T06:37:31;16.27;;;8.27;;
61407;SDS011;47274;43.054;25.146;2023-08-24T06:39:57;16.80;;;9.25;;
61407;SDS011;47274;43.054;25.146;2023-08-24T06:42:23;14.52;;;7.68;;
61407;SDS011;47274;43.054;25.146;2023-08-24T06:44:49;16.15;;;8.70;;
61407;SDS011;47274;43.054;25.146;2023-08-24T06:47:17;17.42;;;9.07;;
61407;SDS011;47274;43.054;25.146;2023-08-24T06:49:46;16.73;;;8.85;;
61407;SDS011;47274;43.054;25.146;2023-08-24T06:52:12;17.73;;;8.80;;
61407;SDS011;47274;43.054;25.146;2023-08-24T06:54:37;15.02;;;8.20;;
61407;SDS011;47274;43.054;25.146;2023-08-24T06:57:03;13.00;;;7.72;;
61407;SDS011;47274;43.054;25.146;2023-08-24T06:59:29;17.73;;;8.60;;
61407;SDS011;47274;43.054;25.146;2023-08-24T07:01:55;15.80;;;8.05;;
61407;SDS011;47274;43.054;25.146;2023-08-24T07:04:21;15.52;;;8.90;;
61407;SDS011;47274;43.054;25.146;2023-08-24T07:06:47;14.88;;;8.63;;
61407;SDS011;47274;43.054;25.146;2023-08-24T07:09:14;14.73;;;7.95;;
61407;SDS011;47274;43.054;25.146;2023-08-24T07:11:40;15.73;;;8.32;;
61407;SDS011;47274;43.054;25.146;2023-08-24T07:14:06;16.20;;;8.30;;
61407;SDS011;47274;43.054;25.146;2023-08-24T07:16:32;14.93;;;8.50;;
61407;SDS011;47274;43.054;25.146;2023-08-24T07:18:58;15.77;;;7.90;;
61407;SDS011;47274;43.054;25.146;2023-08-24T07:21:24;13.23;;;8.00;;
61407;SDS011;47274;43.054;25.146;2023-08-24T07:23:50;15.60;;;9.18;;
61407;SDS011;47274;43.054;25.146;2023-08-24T07:26:15;13.57;;;7.65;;
61407;SDS011;47274;43.054;25.146;2023-08-24T07:28:41;14.20;;;7.82;;
61407;SDS011;47274;43.054;25.146;2023-08-24T07:31:10;15.43;;;7.50;;
61407;SDS011;47274;43.054;25.146;2023-08-24T07:33:37;14.63;;;8.60;;
61407;SDS011;47274;43.054;25.146;2023-08-24T07:36:05;16.95;;;8.18;;
61407;SDS011;47274;43.054;25.146;2023-08-24T07:38:32;13.07;;;7.72;;
61407;SDS011;47274;43.054;25.146;2023-08-24T07:41:00;15.07;;;8.60;;
61407;SDS011;47274;43.054;25.146;2023-08-24T07:43:26;16.42;;;9.40;;
61407;SDS011;47274;43.054;25.146;2023-08-24T07:45:55;14.02;;;8.38;;
61407;SDS011;47274;43.054;25.146;2023-08-24T07:48:20;14.18;;;8.13;;
61407;SDS011;47274;43.054;25.146;2023-08-24T07:50:46;17.17;;;8.82;;
61407;SDS011;47274;43.054;25.146;2023-08-24T07:53:12;15.60;;;8.73;;
61407;SDS011;47274;43.054;25.146;2023-08-24T07:55:39;15.40;;;9.25;;
61407;SDS011;47274;43.054;25.146;2023-08-24T07:58:05;16.35;;;8.88;;
61407;SDS011;47274;43.054;25.146;2023-08-24T08:00:31;14.50;;;9.00;;
61407;SDS011;47274;43.054;25.146;2023-08-24T08:02:58;17.23;;;9.20;;
61407;SDS011;47274;43.054;25.146;2023-08-24T08:05:24;18.38;;;9.75;;
61407;SDS011;47274;43.054;25.146;2023-08-24T08:07:50;16.38;;;8.65;;
61407;SDS011;47274;43.054;25.146;2023-08-24T08:10:16;16.48;;;9.38;;
61407;SDS011;47274;43.054;25.146;2023-08-24T08:12:42;18.17;;;9.40;;
61407;SDS011;47274;43.054;25.146;2023-08-24T08:15:08;16.10;;;8.95;;
61407;SDS011;47274;43.054;25.146;2023-08-24T08:17:34;17.33;;;9.50;;
61407;SDS011;47274;43.054;25.146;2023-08-24T08:20:00;19.15;;;10.13;;
61407;SDS011;47274;43.054;25.146;2023-08-24T08:22:27;17.92;;;9.73;;
61407;SDS011;47274;43.054;25.146;2023-08-24T08:24:54;15.30;;;9.30;;
61407;SDS011;47274;43.054;25.146;2023-08-24T08:27:22;15.57;;;9.55;;
61407;SDS011;47274;43.054;25.146;2023-08-24T08:29:48;17.67;;;9.65;;
61407;SDS011;47274;43.054;25.146;2023-08-24T08:32:18;18.60;;;10.43;;
61407;SDS011;47274;43.054;25.146;2023-08-24T08:34:44;15.05;;;9.18;;
61407;SDS011;47274;43.054;25.146;2023-08-24T08:37:10;16.67;;;9.38;;
61407;SDS011;47274;43.054;25.146;2023-08-24T08:39:36;19.25;;;10.65;;
61407;SDS011;47274;43.054;25.146;2023-08-24T08:42:04;16.77;;;9.40;;
61407;SDS011;47274;43.054;25.146;2023-08-24T08:44:36;16.95;;;9.77;;
61407;SDS011;47274;43.054;25.146;2023-08-24T08:47:02;16.73;;;9.18;;
61407;SDS011;47274;43.054;25.146;2023-08-24T08:49:29;15.88;;;9.35;;
61407;SDS011;47274;43.054;25.146;2023-08-24T08:51:56;15.02;;;9.20;;
61407;SDS011;47274;43.054;25.146;2023-08-24T08:54:21;17.70;;;9.40;;
61407;SDS011;47274;43.054;25.146;2023-08-24T08:56:48;17.58;;;10.50;;
61407;SDS011;47274;43.054;25.146;2023-08-24T08:59:15;16.60;;;9.40;;
61407;SDS011;47274;43.054;25.146;2023-08-24T09:01:41;16.95;;;9.57;;
61407;SDS011;47274;43.054;25.146;2023-08-24T09:04:09;17.52;;;9.57;;
61407;SDS011;47274;43.054;25.146;2023-08-24T09:06:35;18.17;;;10.80;;
61407;SDS011;47274;43.054;25.146;2023-08-24T09:09:02;15.23;;;9.07;;
61407;SDS011;47274;43.054;25.146;2023-08-24T09:11:28;16.98;;;8.70;;
61407;SDS011;47274;43.054;25.146;2023-08-24T09:13:56;17.63;;;10.63;;
61407;SDS011;47274;43.054;25.146;2023-08-24T09:16:21;15.35;;;8.95;;
61407;SDS011;47274;43.054;25.146;2023-08-24T09:18:48;20.45;;;10.90;;
61407;SDS011;47274;43.054;25.146;2023-08-24T09:21:14;19.00;;;10.32;;
61407;SDS011;47274;43.054;25.146;2023-08-24T09:23:44;16.00;;;9.00;;
61407;SDS011;47274;43.054;25.146;2023-08-24T09:26:22;16.55;;;9.98;;
61407;SDS011;47274;43.054;25.146;2023-08-24T09:28:56;17.58;;;9.55;;
61407;SDS011;47274;43.054;25.146;2023-08-24T09:31:37;16.20;;;9.52;;
61407;SDS011;47274;43.054;25.146;2023-08-24T09:34:04;18.73;;;10.45;;
61407;SDS011;47274;43.054;25.146;2023-08-24T09:36:34;16.33;;;9.23;;
61407;SDS011;47274;43.054;25.146;2023-08-24T09:39:00;16.45;;;9.23;;
61407;SDS011;47274;43.054;25.146;2023-08-24T09:41:40;17.98;;;9.88;;
61407;SDS011;47274;43.054;25.146;2023-08-24T09:44:07;15.35;;;8.85;;
61407;SDS011;47274;43.054;25.146;2023-08-24T09:46:37;15.60;;;8.65;;
61407;SDS011;47274;43.054;25.146;2023-08-24T09:49:07;15.35;;;8.55;;
61407;SDS011;47274;43.054;25.146;2023-08-24T09:51:34;14.93;;;8.10;;
61407;SDS011;47274;43.054;25.146;2023-08-24T09:54:05;14.70;;;8.48;;
61407;SDS011;47274;43.054;25.146;2023-08-24T09:56:35;13.18;;;8.52;;
61407;SDS011;47274;43.054;25.146;2023-08-24T09:59:24;13.35;;;8.68;;
61407;SDS011;47274;43.054;25.146;2023-08-24T10:01:51;15.70;;;8.23;;
61407;SDS011;47274;43.054;25.146;2023-08-24T10:04:25;14.48;;;8.40;;
61407;SDS011;47274;43.054;25.146;2023-08-24T10:07:03;12.88;;;7.60;;
61407;SDS011;47274;43.054;25.146;2023-08-24T10:09:57;14.65;;;8.95;;
61407;SDS011;47274;43.054;25.146;2023-08-24T10:15:01;14.80;;;8.50;;
61407;SDS011;47274;43.054;25.146;2023-08-24T10:17:32;13.68;;;8.85;;
61407;SDS011;47274;43.054;25.146;2023-08-24T10:20:01;15.43;;;8.45;;
61407;SDS011;47274;43.054;25.146;2023-08-24T10:22:30;13.85;;;8.60;;
61407;SDS011;47274;43.054;25.146;2023-08-24T10:24:59;15.13;;;9.10;;
61407;SDS011;47274;43.054;25.146;2023-08-24T10:27:26;14.50;;;8.73;;
61407;SDS011;47274;43.054;25.146;2023-08-24T10:29:53;15.88;;;9.20;;
61407;SDS011;47274;43.054;25.146;2023-08-24T10:32:19;15.02;;;9.02;;
61407;SDS011;47274;43.054;25.146;2023-08-24T10:34:47;16.35;;;9.38;;
61407;SDS011;47274;43.054;25.146;2023-08-24T10:37:13;15.32;;;9.00;;
61407;SDS011;47274;43.054;25.146;2023-08-24T10:39:46;15.20;;;9.27;;
61407;SDS011;47274;43.054;25.146;2023-08-24T10:42:12;27.02;;;17.10;;
61407;SDS011;47274;43.054;25.146;2023-08-24T10:44:39;46.25;;;33.47;;
61407;SDS011;47274;43.054;25.146;2023-08-24T10:47:13;23.00;;;14.48;;
61407;SDS011;47274;43.054;25.146;2023-08-24T10:49:44;20.45;;;11.70;;
61407;SDS011;47274;43.054;25.146;2023-08-24T10:54:53;19.92;;;11.05;;
61407;SDS011;47274;43.054;25.146;2023-08-24T10:57:35;20.38;;;11.30;;
61407;SDS011;47274;43.054;25.146;2023-08-24T11:00:09;17.80;;;9.52;;
61407;SDS011;47274;43.054;25.146;2023-08-24T11:07:50;21.55;;;12.07;;
61407;SDS011;47274;43.054;25.146;2023-08-24T11:10:18;18.95;;;11.77;;
61407;SDS011;47274;43.054;25.146;2023-08-24T11:15:48;22.00;;;12.60;;
61407;SDS011;47274;43.054;25.146;2023-08-24T11:18:24;21.00;;;12.02;;
61407;SDS011;47274;43.054;25.146;2023-08-24T11:20:52;19.52;;;11.07;;
61407;SDS011;47274;43.054;25.146;2023-08-24T11:23:20;21.50;;;11.57;;
61407;SDS011;47274;43.054;25.146;2023-08-24T11:25:48;21.83;;;13.00;;
61407;SDS011;47274;43.054;25.146;2023-08-24T11:28:22;21.70;;;12.65;;
61407;SDS011;47274;43.054;25.146;2023-08-24T11:30:49;20.05;;;11.32;;
61407;SDS011;47274;43.054;25.146;2023-08-24T11:33:16;18.92;;;12.02;;
61407;SDS011;47274;43.054;25.146;2023-08-24T11:35:54;20.23;;;11.57;;
61407;SDS011;47274;43.054;25.146;2023-08-24T11:38:21;18.02;;;10.35;;
61407;SDS011;47274;43.054;25.146;2023-08-24T11:40:47;19.15;;;10.55;;
61407;SDS011;47274;43.054;25.146;2023-08-24T11:43:20;20.25;;;11.20;;
61407;SDS011;47274;43.054;25.146;2023-08-24T11:45:49;22.55;;;11.23;;
61407;SDS011;47274;43.054;25.146;2023-08-24T11:48:15;17.42;;;10.75;;
61407;SDS011;47274;43.054;25.146;2023-08-24T11:50:41;20.15;;;11.80;;
61407;SDS011;47274;43.054;25.146;2023-08-24T11:53:07;16.90;;;10.52;;
61407;SDS011;47274;43.054;25.146;2023-08-24T11:55:33;18.58;;;10.60;;
61407;SDS011;47274;43.054;25.146;2023-08-24T11:58:04;18.30;;;10.13;;
61407;SDS011;47274;43.054;25.146;2023-08-24T12:00:38;19.17;;;10.55;;
61407;SDS011;47274;43.054;25.146;2023-08-24T12:03:04;17.00;;;9.60;;
61407;SDS011;47274;43.054;25.146;2023-08-24T12:05:30;16.15;;;10.10;;
61407;SDS011;47274;43.054;25.146;2023-08-24T12:07:56;18.42;;;10.23;;
61407;SDS011;47274;43.054;25.146;2023-08-24T12:10:22;16.40;;;9.60;;
61407;SDS011;47274;43.054;25.146;2023-08-24T12:12:48;19.80;;;11.18;;
61407;SDS011;47274;43.054;25.146;2023-08-24T12:15:18;21.08;;;11.60;;
61407;SDS011;47274;43.054;25.146;2023-08-24T12:17:46;19.13;;;11.60;;
61407;SDS011;47274;43.054;25.146;2023-08-24T12:20:20;19.83;;;11.73;;
61407;SDS011;47274;43.054;25.146;2023-08-24T12:22:53;19.05;;;10.85;;
61407;SDS011;47274;43.054;25.146;2023-08-24T12:25:25;19.55;;;11.02;;
61407;SDS011;47274;43.054;25.146;2023-08-24T12:28:13;19.75;;;10.93;;
61407;SDS011;47274;43.054;25.146;2023-08-24T12:30:47;18.35;;;10.93;;
61407;SDS011;47274;43.054;25.146;2023-08-24T12:33:22;17.75;;;10.05;;
61407;SDS011;47274;43.054;25.146;2023-08-24T12:35:49;19.13;;;11.27;;
61407;SDS011;47274;43.054;25.146;2023-08-24T12:38:16;20.30;;;11.43;;
61407;SDS011;47274;43.054;25.146;2023-08-24T12:40:42;22.45;;;12.55;;
61407;SDS011;47274;43.054;25.146;2023-08-24T12:43:11;21.15;;;11.82;;
61407;SDS011;47274;43.054;25.146;2023-08-24T12:45:37;20.33;;;11.88;;
61407;SDS011;47274;43.054;25.146;2023-08-24T12:48:05;19.85;;;11.45;;
61407;SDS011;47274;43.054;25.146;2023-08-24T12:50:32;19.95;;;12.23;;
61407;SDS011;47274;43.054;25.146;2023-08-24T12:53:04;23.05;;;13.10;;
61407;SDS011;47274;43.054;25.146;2023-08-24T12:55:38;20.38;;;12.13;;
61407;SDS011;47274;43.054;25.146;2023-08-24T12:58:07;21.60;;;14.25;;
61407;SDS011;47274;43.054;25.146;2023-08-24T13:00:34;21.80;;;13.25;;
61407;SDS011;47274;43.054;25.146;2023-08-24T13:03:00;20.13;;;12.15;;
61407;SDS011;47274;43.054;25.146;2023-08-24T13:05:36;21.80;;;12.02;;
61407;SDS011;47274;43.054;25.146;2023-08-24T13:08:07;21.90;;;12.45;;
61407;SDS011;47274;43.054;25.146;2023-08-24T13:10:33;21.17;;;11.90;;
61407;SDS011;47274;43.054;25.146;2023-08-24T13:13:03;21.52;;;13.15;;
61407;SDS011;47274;43.054;25.146;2023-08-24T13:15:29;22.60;;;13.90;;
61407;SDS011;47274;43.054;25.146;2023-08-24T13:17:57;21.15;;;13.77;;
61407;SDS011;47274;43.054;25.146;2023-08-24T13:20:28;21.15;;;13.43;;
61407;SDS011;47274;43.054;25.146;2023-08-24T13:22:56;22.05;;;14.27;;
61407;SDS011;47274;43.054;25.146;2023-08-24T13:25:22;22.23;;;14.00;;
61407;SDS011;47274;43.054;25.146;2023-08-24T13:27:50;20.83;;;12.63;;
61407;SDS011;47274;43.054;25.146;2023-08-24T13:30:21;20.65;;;12.75;;
61407;SDS011;47274;43.054;25.146;2023-08-24T13:32:47;22.88;;;14.30;;
61407;SDS011;47274;43.054;25.146;2023-08-24T13:35:15;21.40;;;12.95;;
61407;SDS011;47274;43.054;25.146;2023-08-24T13:37:50;23.23;;;14.32;;
61407;SDS011;47274;43.054;25.146;2023-08-24T13:40:17;22.80;;;14.98;;
61407;SDS011;47274;43.054;25.146;2023-08-24T13:42:45;20.73;;;13.55;;
61407;SDS011;47274;43.054;25.146;2023-08-24T13:45:11;21.92;;;14.25;;
61407;SDS011;47274;43.054;25.146;2023-08-24T13:47:37;20.20;;;13.43;;
61407;SDS011;47274;43.054;25.146;2023-08-24T13:50:05;21.85;;;13.90;;
61407;SDS011;47274;43.054;25.146;2023-08-24T13:52:37;21.23;;;13.70;;
61407;SDS011;47274;43.054;25.146;2023-08-24T13:55:05;21.00;;;13.40;;
61407;SDS011;47274;43.054;25.146;2023-08-24T13:57:34;21.10;;;14.23;;
61407;SDS011;47274;43.054;25.146;2023-08-24T14:00:03;23.83;;;14.20;;
61407;SDS011;47274;43.054;25.146;2023-08-24T14:02:37;21.10;;;14.02;;
61407;SDS011;47274;43.054;25.146;2023-08-24T14:05:06;21.40;;;13.65;;
61407;SDS011;47274;43.054;25.146;2023-08-24T14:07:34;21.67;;;13.95;;
61407;SDS011;47274;43.054;25.146;2023-08-24T14:10:01;20.13;;;13.55;;
61407;SDS011;47274;43.054;25.146;2023-08-24T14:12:27;21.58;;;13.85;;
61407;SDS011;47274;43.054;25.146;2023-08-24T14:14:53;21.65;;;14.13;;
61407;SDS011;47274;43.054;25.146;2023-08-24T14:17:28;21.13;;;13.75;;
61407;SDS011;47274;43.054;25.146;2023-08-24T14:19:54;21.38;;;13.43;;
61407;SDS011;47274;43.054;25.146;2023-08-24T14:22:20;20.95;;;13.48;;
61407;SDS011;47274;43.054;25.146;2023-08-24T14:24:46;22.20;;;13.68;;
61407;SDS011;47274;43.054;25.146;2023-08-24T14:27:12;21.77;;;13.90;;
61407;SDS011;47274;43.054;25.146;2023-08-24T14:29:38;20.13;;;13.00;;
61407;SDS011;47274;43.054;25.146;2023-08-24T14:32:04;20.20;;;13.35;;
61407;SDS011;47274;43.054;25.146;2023-08-24T14:34:30;20.23;;;13.35;;
61407;SDS011;47274;43.054;25.146;2023-08-24T14:36:58;20.35;;;12.40;;
61407;SDS011;47274;43.054;25.146;2023-08-24T14:39:27;19.77;;;11.57;;
61407;SDS011;47274;43.054;25.146;2023-08-24T14:41:56;20.08;;;11.88;;
61407;SDS011;47274;43.054;25.146;2023-08-24T14:44:24;19.13;;;11.80;;